To NAV CANADA Home Page Login to a new session Search on AWWS site Disclaimer Vers la page française équivalente Tips FAQ What's new on the site To the Forecasts and Observations / NOTAM section To "File a Flight Plan" website Publications and other links Update of the User's profile FIC Telephone Numbers My Weather Data Folder Route Weather Data Regional Weather Data Local Weather Data To the Forecasts and Observations / NOTAM section
Request Generated 10/21/2018 at 05:49:55 UTC . Weather information available at that time is displayed.

METAR/TAF

PRINCE ALBERT (GLASS FIELD)/SK    

METAR CYPA 210500Z 28008KT 15SM SKC 01/M03 A2990 RMK SLP150=
METAR CYPA 210400Z 27008KT 15SM SKC 04/M02 A2988 RMK SLP142=
METAR CYPA 210300Z 28009KT 15SM SKC 03/M03 A2987 RMK SLP140=

TAF CYPA 210038Z 2101/2113 18006KT P6SM SCT090
BECMG 2101/2103 28012G22KT
FM210600 29008KT P6SM SKC
RMK NXT FCST BY 210700Z=
Your time UTC time
Weather data provided by Environment Canada and NAV CANADA